Time;durP1;ratioP1;P1;durP2;ratioP2;P2;SDS_P1;SDS_P2;PMS_P1;PMS_P2;Temp;Humidity;BMP_temperature;BMP_pressure;BME280_temperature;BME280_humidity;BME280_pressure;Samples;Min_cycle;Max_cycle;Signal;HPM_P1;HPM_P2
2023/03/13 00:01:43;;;;;;;6.88;1.48;;;9.50;99.90;;;;;;4971131;28;20046;-77
2023/03/13 00:04:09;;;;;;;5.60;1.70;;;9.50;99.90;;;;;;4971484;28;20097;-76
2023/03/13 00:06:37;;;;;;;6.90;1.23;;;9.50;99.90;;;;;;4970002;28;20031;-77
2023/03/13 00:09:05;;;;;;;4.32;0.98;;;9.50;99.90;;;;;;4974471;28;20101;-77
2023/03/13 00:11:31;;;;;;;6.15;1.30;;;9.50;99.90;;;;;;4973596;28;20474;-77
2023/03/13 00:13:59;;;;;;;6.20;1.33;;;9.50;99.90;;;;;;4970173;28;20058;-77
2023/03/13 00:16:26;;;;;;;7.65;1.45;;;9.60;99.90;;;;;;4969911;28;20054;-77
2023/03/13 00:18:53;;;;;;;10.23;2.13;;;9.60;99.90;;;;;;4970668;28;20057;-77
2023/03/13 00:21:22;;;;;;;7.25;1.23;;;9.60;99.90;;;;;;4972152;28;20486;-77
2023/03/13 00:23:48;;;;;;;5.15;1.27;;;9.60;99.90;;;;;;4969223;28;20354;-76
2023/03/13 00:26:17;;;;;;;4.32;1.40;;;9.60;99.90;;;;;;4988763;28;20467;-77
2023/03/13 00:28:43;;;;;;;6.97;1.60;;;9.60;99.90;;;;;;4970421;28;20024;-79
2023/03/13 00:31:18;;;;;;;5.63;1.60;;;9.60;99.90;;;;;;4970254;28;20035;-77
2023/03/13 00:33:48;;;;;;;4.35;1.30;;;9.60;99.90;;;;;;4973815;28;20027;-78
2023/03/13 00:36:17;;;;;;;5.07;1.10;;;9.60;99.90;;;;;;4970998;28;20027;-75
2023/03/13 00:38:44;;;;;;;4.28;1.45;;;9.60;99.90;;;;;;4975939;28;20031;-76
2023/03/13 00:41:16;;;;;;;6.78;1.23;;;9.60;99.90;;;;;;4974677;28;20038;-76
2023/03/13 00:43:43;;;;;;;7.28;1.63;;;9.50;99.90;;;;;;4976700;28;20030;-77
2023/03/13 00:46:09;;;;;;;7.07;1.90;;;9.50;99.90;;;;;;4986723;28;20118;-76
2023/03/13 00:48:35;;;;;;;5.85;1.35;;;9.50;99.90;;;;;;4975435;28;20056;-75
2023/03/13 00:51:03;;;;;;;9.13;1.70;;;9.50;99.90;;;;;;4974175;28;20085;-75
2023/03/13 00:53:28;;;;;;;5.93;1.42;;;9.50;99.90;;;;;;4975790;28;20030;-76
2023/03/13 00:55:56;;;;;;;9.55;1.60;;;9.50;99.90;;;;;;4965248;28;20027;-76
2023/03/13 00:58:22;;;;;;;9.20;1.88;;;9.50;99.90;;;;;;4985579;28;20030;-77
2023/03/13 01:00:48;;;;;;;7.38;1.58;;;9.50;99.90;;;;;;4971743;28;20027;-77
2023/03/13 01:03:14;;;;;;;11.90;2.05;;;9.50;99.90;;;;;;4969763;28;20031;-76
2023/03/13 01:05:39;;;;;;;6.90;1.52;;;9.50;99.90;;;;;;4967900;28;20163;-77
2023/03/13 01:08:05;;;;;;;7.47;1.70;;;9.50;99.90;;;;;;4972113;28;20293;-76
2023/03/13 01:10:31;;;;;;;6.22;1.10;;;9.50;99.90;;;;;;4966591;28;20033;-76
2023/03/13 01:12:57;;;;;;;7.18;1.92;;;9.50;99.90;;;;;;4988404;28;20385;-76
2023/03/13 01:15:23;;;;;;;9.38;2.08;;;9.40;99.90;;;;;;4974947;28;20038;-76
2023/03/13 01:17:48;;;;;;;6.10;1.40;;;9.50;99.90;;;;;;4967022;28;20019;-76
2023/03/13 01:20:14;;;;;;;7.43;1.48;;;9.40;99.90;;;;;;4976171;28;20392;-75
2023/03/13 01:22:40;;;;;;;5.35;1.65;;;9.40;99.90;;;;;;4972580;28;20042;-75
2023/03/13 01:25:06;;;;;;;7.72;1.65;;;9.40;99.90;;;;;;4969726;28;20035;-76
2023/03/13 01:27:32;;;;;;;5.05;1.25;;;9.50;99.90;;;;;;4971746;28;20427;-76
2023/03/13 01:29:57;;;;;;;9.40;1.40;;;9.50;99.90;;;;;;4975415;28;20037;-76
2023/03/13 01:32:23;;;;;;;3.85;1.20;;;9.50;99.90;;;;;;4978115;28;20042;-75
2023/03/13 01:34:49;;;;;;;4.45;1.20;;;9.50;99.90;;;;;;4986497;28;20046;-76
2023/03/13 01:37:14;;;;;;;6.90;1.63;;;9.50;99.90;;;;;;4983174;28;20023;-76
2023/03/13 01:39:40;;;;;;;4.35;1.10;;;9.50;99.90;;;;;;4981845;28;20034;-75
2023/03/13 01:42:06;;;;;;;5.57;1.30;;;9.60;99.90;;;;;;4964724;28;20083;-76
2023/03/13 01:44:55;;;;;;;6.60;1.55;;;9.50;99.90;;;;;;4975529;28;20031;-75
2023/03/13 01:47:21;;;;;;;2.60;1.02;;;9.60;99.90;;;;;;4966822;28;20110;-76
2023/03/13 01:49:48;;;;;;;7.13;1.30;;;9.60;99.90;;;;;;4972890;28;20450;-77
2023/03/13 01:52:26;;;;;;;5.25;1.20;;;9.60;99.90;;;;;;4968048;28;20031;-76
2023/03/13 01:55:01;;;;;;;3.30;0.77;;;9.60;99.90;;;;;;4979447;28;20023;-77
2023/03/13 01:57:36;;;;;;;7.88;0.98;;;9.60;99.90;;;;;;4972814;28;20027;-77
2023/03/13 02:00:28;;;;;;;4.65;1.02;;;9.70;99.90;;;;;;4973283;28;20527;-77
2023/03/13 02:02:58;;;;;;;7.43;1.38;;;9.80;99.90;;;;;;4978600;28;20030;-77
2023/03/13 02:05:26;;;;;;;18.58;10.50;;;9.80;99.90;;;;;;4980279;28;20027;-76
2023/03/13 02:07:57;;;;;;;10.27;3.38;;;9.80;99.90;;;;;;4974824;28;20030;-76
2023/03/13 02:10:24;;;;;;;2.80;1.08;;;9.80;99.90;;;;;;4969684;28;20035;-77
2023/03/13 02:12:50;;;;;;;3.60;0.80;;;9.80;99.90;;;;;;4964115;28;20070;-76
2023/03/13 02:15:19;;;;;;;5.03;0.77;;;9.90;99.90;;;;;;4972900;28;20029;-77
2023/03/13 02:17:46;;;;;;;3.83;0.63;;;10.00;99.90;;;;;;4979432;28;20171;-77
2023/03/13 02:20:14;;;;;;;4.88;1.17;;;10.10;99.90;;;;;;4984053;28;20120;-76
2023/03/13 02:22:57;;;;;;;4.18;1.17;;;10.20;99.90;;;;;;4979235;28;20035;-76
2023/03/13 02:25:22;;;;;;;2.15;0.52;;;10.30;99.90;;;;;;4979092;28;20035;-76
2023/03/13 02:27:59;;;;;;;1.17;0.68;;;10.30;99.90;;;;;;4977831;28;20504;-77
2023/03/13 02:30:25;;;;;;;2.25;0.80;;;10.40;99.90;;;;;;4977029;28;20026;-76
2023/03/13 02:32:51;;;;;;;2.88;0.52;;;10.50;99.90;;;;;;4979113;28;20097;-77
2023/03/13 02:35:19;;;;;;;3.88;1.02;;;10.50;99.90;;;;;;4979030;28;20023;-77
2023/03/13 02:37:49;;;;;;;2.58;0.70;;;10.60;99.90;;;;;;4977975;28;20036;-77
2023/03/13 02:40:20;;;;;;;4.72;0.60;;;10.60;99.90;;;;;;4979051;28;20022;-76
2023/03/13 02:42:47;;;;;;;2.30;0.73;;;10.60;99.90;;;;;;4977813;28;20125;-76
2023/03/13 02:45:14;;;;;;;4.25;0.50;;;10.70;99.90;;;;;;4976781;28;20085;-76
2023/03/13 02:47:40;;;;;;;1.77;0.55;;;10.70;99.90;;;;;;4977556;28;20027;-75
2023/03/13 02:50:06;;;;;;;5.50;0.85;;;10.70;99.90;;;;;;4977878;28;20034;-76
2023/03/13 02:52:45;;;;;;;2.53;0.50;;;10.80;99.90;;;;;;4977572;28;20018;-76
2023/03/13 02:55:21;;;;;;;3.08;0.50;;;10.90;99.90;;;;;;4978451;28;20046;-76
2023/03/13 02:57:47;;;;;;;2.03;0.60;;;10.90;99.90;;;;;;4978360;28;20019;-75
2023/03/13 03:00:16;;;;;;;3.35;0.60;;;10.90;99.90;;;;;;4976668;28;20424;-76
2023/03/13 03:02:43;;;;;;;3.08;0.68;;;10.90;99.90;;;;;;4978516;28;20019;-77
2023/03/13 03:05:09;;;;;;;3.33;1.00;;;10.90;99.90;;;;;;4978260;28;20031;-76
2023/03/13 03:07:35;;;;;;;6.30;1.00;;;11.00;99.90;;;;;;4978711;28;20031;-76
2023/03/13 03:10:01;;;;;;;2.97;0.88;;;11.00;99.90;;;;;;4977986;28;20069;-77
2023/03/13 03:12:26;;;;;;;3.20;0.70;;;11.00;99.90;;;;;;4976178;28;20023;-77
2023/03/13 03:14:52;;;;;;;2.17;0.45;;;11.00;99.90;;;;;;4965812;28;20019;-76
2023/03/13 03:17:18;;;;;;;1.70;0.60;;;11.00;99.90;;;;;;4970991;28;20027;-75
2023/03/13 03:19:43;;;;;;;1.48;0.40;;;11.10;99.90;;;;;;4970745;28;20031;-76
2023/03/13 03:22:09;;;;;;;3.58;0.50;;;11.10;99.90;;;;;;4970265;28;20031;-76
2023/03/13 03:24:36;;;;;;;2.35;0.47;;;11.10;99.90;;;;;;4966094;28;22257;-75
2023/03/13 03:27:01;;;;;;;2.33;0.35;;;11.20;99.90;;;;;;4964943;28;20026;-74
2023/03/13 03:29:27;;;;;;;0.88;0.30;;;11.20;99.90;;;;;;4971632;28;20061;-73
2023/03/13 03:31:53;;;;;;;1.70;0.68;;;11.30;99.90;;;;;;4965559;28;20023;-74
2023/03/13 03:34:19;;;;;;;0.95;0.40;;;11.30;99.90;;;;;;4968522;28;20168;-73
2023/03/13 03:36:45;;;;;;;3.67;0.40;;;11.40;99.90;;;;;;4967250;28;20026;-74
2023/03/13 03:39:11;;;;;;;1.25;0.40;;;11.40;99.90;;;;;;4970249;28;20031;-74
2023/03/13 03:41:36;;;;;;;1.73;0.60;;;11.40;99.90;;;;;;4964920;28;20170;-73
2023/03/13 03:44:03;;;;;;;3.05;0.60;;;11.40;99.90;;;;;;4969519;28;20026;-74
2023/03/13 03:46:29;;;;;;;2.80;0.60;;;11.40;99.90;;;;;;4967735;28;20030;-74
2023/03/13 03:48:54;;;;;;;1.67;0.57;;;11.40;99.90;;;;;;4966293;28;20027;-74
2023/03/13 03:51:21;;;;;;;2.00;0.38;;;11.40;99.90;;;;;;4963913;28;20038;-74
2023/03/13 03:53:47;;;;;;;1.15;0.40;;;11.40;99.90;;;;;;4962824;28;20098;-73
2023/03/13 03:56:13;;;;;;;1.25;0.43;;;11.40;99.90;;;;;;4981365;28;20030;-74
2023/03/13 03:58:38;;;;;;;4.38;0.57;;;11.50;99.90;;;;;;4965339;28;20449;-73
2023/03/13 04:01:04;;;;;;;2.97;0.70;;;11.50;99.90;;;;;;4966068;28;20521;-74
2023/03/13 04:03:30;;;;;;;1.17;0.30;;;11.50;99.90;;;;;;4962668;28;20231;-73
2023/03/13 04:05:56;;;;;;;2.63;0.70;;;11.50;99.90;;;;;;4964848;28;20105;-75
2023/03/13 04:08:22;;;;;;;2.75;0.63;;;11.50;99.90;;;;;;4965367;28;20119;-74
2023/03/13 04:10:48;;;;;;;1.52;0.40;;;11.50;99.90;;;;;;4965489;28;20031;-75
2023/03/13 04:13:14;;;;;;;1.20;0.50;;;11.50;99.90;;;;;;4965761;28;20361;-75
2023/03/13 04:15:40;;;;;;;2.35;0.60;;;11.50;99.90;;;;;;4969829;28;20034;-75
2023/03/13 04:18:06;;;;;;;3.13;0.50;;;11.50;99.90;;;;;;4962583;28;20019;-75
2023/03/13 04:20:32;;;;;;;1.42;0.50;;;11.50;99.90;;;;;;4962914;28;20051;-75
2023/03/13 04:22:57;;;;;;;1.13;0.50;;;11.50;99.90;;;;;;4963792;28;20082;-74
2023/03/13 04:25:23;;;;;;;2.25;0.40;;;11.50;99.90;;;;;;4964043;28;20190;-74
2023/03/13 04:27:49;;;;;;;2.28;0.50;;;11.50;99.90;;;;;;4967348;28;20319;-74
2023/03/13 04:30:15;;;;;;;3.05;0.60;;;11.50;99.90;;;;;;4963924;28;20032;-75
2023/03/13 04:32:41;;;;;;;1.50;0.57;;;11.50;99.90;;;;;;4962570;28;20035;-75
2023/03/13 04:35:07;;;;;;;1.75;0.50;;;11.50;99.90;;;;;;4964559;28;20116;-74
2023/03/13 04:37:33;;;;;;;1.77;0.57;;;11.50;99.90;;;;;;4962141;28;20038;-75
2023/03/13 04:39:58;;;;;;;3.92;0.60;;;11.50;99.90;;;;;;4965190;28;20031;-74
2023/03/13 04:42:24;;;;;;;3.05;0.57;;;11.50;99.90;;;;;;4962452;28;20031;-74
2023/03/13 04:44:50;;;;;;;3.75;1.70;;;11.50;99.90;;;;;;4962319;28;20039;-74
2023/03/13 04:47:17;;;;;;;4.15;0.95;;;11.50;99.90;;;;;;4964622;28;20031;-74
2023/03/13 04:49:42;;;;;;;1.85;0.95;;;11.40;99.90;;;;;;4961152;28;20041;-73
2023/03/13 04:52:08;;;;;;;3.50;0.88;;;11.40;99.90;;;;;;4960318;28;20118;-73
2023/03/13 04:54:34;;;;;;;2.22;0.70;;;11.30;99.90;;;;;;4965388;28;20548;-74
2023/03/13 04:56:59;;;;;;;4.90;1.30;;;11.20;99.90;;;;;;4964862;28;20035;-74
2023/03/13 04:59:25;;;;;;;2.97;1.00;;;11.20;99.90;;;;;;4967451;28;20105;-75
2023/03/13 05:01:51;;;;;;;7.10;1.42;;;11.10;99.90;;;;;;4962105;28;20106;-73
2023/03/13 05:04:16;;;;;;;5.57;1.20;;;11.10;99.90;;;;;;4961558;28;20089;-74
2023/03/13 05:06:42;;;;;;;2.28;0.90;;;11.00;99.90;;;;;;4966395;28;20041;-74
2023/03/13 05:09:07;;;;;;;5.50;1.00;;;11.00;99.90;;;;;;4960634;28;20031;-72
2023/03/13 05:11:33;;;;;;;3.17;0.82;;;11.00;99.90;;;;;;4963525;28;20310;-74
2023/03/13 05:13:59;;;;;;;4.63;1.08;;;10.90;99.90;;;;;;4963127;28;21226;-75
2023/03/13 05:16:24;;;;;;;7.13;0.90;;;11.00;99.90;;;;;;4957020;28;20038;-72
2023/03/13 05:18:50;;;;;;;2.25;0.50;;;10.90;99.90;;;;;;4965532;28;20054;-72
2023/03/13 05:21:15;;;;;;;1.85;0.88;;;11.00;99.90;;;;;;4966857;28;20093;-75
2023/03/13 05:23:41;;;;;;;3.42;0.55;;;11.00;99.90;;;;;;4963817;28;20069;-73
2023/03/13 05:26:07;;;;;;;2.20;0.35;;;11.10;99.90;;;;;;4963211;28;21316;-74
2023/03/13 05:28:32;;;;;;;1.23;0.30;;;11.20;99.90;;;;;;4962783;28;20058;-75
2023/03/13 05:30:58;;;;;;;1.10;0.40;;;11.30;99.90;;;;;;4963340;28;20054;-74
2023/03/13 05:33:24;;;;;;;2.03;0.40;;;11.40;99.90;;;;;;4977579;28;20035;-73
2023/03/13 05:35:49;;;;;;;2.28;0.35;;;11.50;99.90;;;;;;4965761;28;20062;-75
2023/03/13 05:38:15;;;;;;;2.05;0.50;;;11.60;99.90;;;;;;4967550;28;20023;-73
2023/03/13 05:40:40;;;;;;;5.75;0.80;;;11.60;99.90;;;;;;4960923;28;20396;-74
2023/03/13 05:43:06;;;;;;;1.95;1.00;;;11.70;99.90;;;;;;4963661;28;20256;-76
2023/03/13 05:45:32;;;;;;;1.23;0.55;;;11.70;99.90;;;;;;4960351;28;20045;-75
2023/03/13 05:47:58;;;;;;;1.20;0.50;;;11.70;99.90;;;;;;4966725;28;20031;-75
2023/03/13 05:50:24;;;;;;;1.42;0.50;;;11.70;99.90;;;;;;4967598;28;20038;-76
2023/03/13 05:52:50;;;;;;;1.05;0.60;;;11.80;99.90;;;;;;4969514;28;20031;-77
2023/03/13 05:55:17;;;;;;;1.33;0.40;;;11.80;99.90;;;;;;4966809;28;20030;-77
2023/03/13 05:57:46;;;;;;;2.40;0.45;;;11.90;99.90;;;;;;4968366;28;20031;-76
2023/03/13 06:00:13;;;;;;;0.70;0.30;;;11.80;99.90;;;;;;4969452;28;20046;-74
2023/03/13 06:02:39;;;;;;;1.63;0.50;;;11.90;99.90;;;;;;4972340;28;20066;-75
2023/03/13 06:05:05;;;;;;;0.65;0.20;;;11.90;99.90;;;;;;4973709;28;20053;-77
2023/03/13 06:07:31;;;;;;;1.70;0.40;;;11.90;99.90;;;;;;4975865;28;20109;-77
2023/03/13 06:09:56;;;;;;;0.60;0.40;;;11.90;99.90;;;;;;4969694;28;20038;-77
2023/03/13 06:12:22;;;;;;;0.60;0.20;;;11.90;99.90;;;;;;4971660;28;20022;-77
2023/03/13 06:14:48;;;;;;;0.90;0.40;;;11.90;99.90;;;;;;4970721;28;20061;-76
2023/03/13 06:17:13;;;;;;;0.50;0.28;;;11.90;99.90;;;;;;4971663;28;20058;-76
2023/03/13 06:19:39;;;;;;;1.17;0.40;;;12.00;99.90;;;;;;4968395;28;20035;-76
2023/03/13 06:22:05;;;;;;;1.42;0.57;;;12.00;99.90;;;;;;4969421;28;20035;-75
2023/03/13 06:24:30;;;;;;;1.25;0.57;;;12.00;99.90;;;;;;4970173;28;20034;-75
2023/03/13 06:26:56;;;;;;;1.20;0.50;;;12.00;99.90;;;;;;4972891;28;20035;-75
2023/03/13 06:29:23;;;;;;;0.80;0.35;;;12.00;99.90;;;;;;4968455;28;20026;-75
2023/03/13 06:31:49;;;;;;;1.10;0.30;;;12.00;99.90;;;;;;4972509;28;20014;-74
2023/03/13 06:34:15;;;;;;;1.50;0.40;;;12.10;99.90;;;;;;4971320;28;20019;-74
2023/03/13 06:36:41;;;;;;;1.08;0.32;;;12.10;99.90;;;;;;4972227;28;20031;-75
2023/03/13 06:39:08;;;;;;;2.65;0.30;;;12.10;99.90;;;;;;4968255;28;20507;-75
2023/03/13 06:41:33;;;;;;;0.98;0.50;;;12.10;99.90;;;;;;4968867;28;20034;-75
2023/03/13 06:43:59;;;;;;;2.67;0.38;;;12.10;99.90;;;;;;4979697;28;20395;-75
2023/03/13 06:46:25;;;;;;;0.73;0.30;;;12.10;99.90;;;;;;4968579;28;20488;-74
2023/03/13 06:48:51;;;;;;;0.30;0.30;;;12.10;99.90;;;;;;4966197;28;20499;-77
2023/03/13 06:51:19;;;;;;;0.73;0.32;;;12.20;99.90;;;;;;4970212;28;20539;-75
2023/03/13 06:53:46;;;;;;;1.08;0.40;;;12.20;99.90;;;;;;4966072;28;20540;-75
2023/03/13 06:56:12;;;;;;;2.13;0.35;;;12.20;99.90;;;;;;4964639;28;20432;-76
2023/03/13 06:58:37;;;;;;;0.70;0.30;;;12.20;99.90;;;;;;4974939;28;20019;-75
2023/03/13 07:01:11;;;;;;;0.85;0.35;;;12.30;99.90;;;;;;4970148;28;20031;-75
2023/03/13 07:03:37;;;;;;;;;;;12.30;99.90;;;;;;4968268;28;20444;-74
2023/03/13 07:06:04;;;;;;;0.70;0.30;;;12.20;99.90;;;;;;4965186;28;19914;-75
2023/03/13 07:08:31;;;;;;;1.00;0.40;;;12.30;99.90;;;;;;4967564;28;20436;-76
2023/03/13 07:10:59;;;;;;;1.05;0.45;;;12.30;99.90;;;;;;4965579;28;20066;-77
2023/03/13 07:13:25;;;;;;;3.38;0.70;;;12.30;99.90;;;;;;4967013;28;20031;-75
2023/03/13 07:15:50;;;;;;;1.35;0.43;;;12.30;99.90;;;;;;4971998;28;20041;-77
2023/03/13 07:18:16;;;;;;;1.67;0.45;;;12.30;99.90;;;;;;4969994;28;20053;-76
2023/03/13 07:20:42;;;;;;;3.47;0.60;;;12.30;99.90;;;;;;4966545;28;20448;-75
2023/03/13 07:23:08;;;;;;;1.55;0.52;;;12.30;99.90;;;;;;4967815;28;20796;-76
2023/03/13 07:25:34;;;;;;;1.55;0.43;;;12.30;99.90;;;;;;4968319;28;20022;-77
2023/03/13 07:28:00;;;;;;;0.40;0.40;;;12.40;99.90;;;;;;4970286;28;20043;-74
2023/03/13 07:30:26;;;;;;;1.50;0.80;;;12.40;99.90;;;;;;4964619;28;20139;-76
2023/03/13 07:32:52;;;;;;;1.88;0.52;;;12.40;99.90;;;;;;4971819;28;20034;-76
2023/03/13 07:35:17;;;;;;;6.13;0.60;;;12.40;99.90;;;;;;4966019;28;20524;-75
2023/03/13 07:37:43;;;;;;;4.35;0.70;;;12.50;99.90;;;;;;4970446;28;20058;-77
2023/03/13 07:40:11;;;;;;;1.10;0.45;;;12.50;99.90;;;;;;4968340;28;20133;-77
2023/03/13 07:42:40;;;;;;;2.83;0.50;;;12.50;99.90;;;;;;4969795;28;20503;-75
2023/03/13 07:45:07;;;;;;;1.63;0.63;;;12.60;99.90;;;;;;4963653;28;20038;-75
2023/03/13 07:47:36;;;;;;;3.92;1.00;;;12.60;99.90;;;;;;4964825;28;20392;-75
2023/03/13 07:50:02;;;;;;;1.17;0.57;;;12.70;99.90;;;;;;4968109;28;20120;-75
2023/03/13 07:52:28;;;;;;;1.15;0.50;;;12.70;99.90;;;;;;4968223;28;20023;-76
2023/03/13 07:54:53;;;;;;;1.52;0.50;;;12.80;99.90;;;;;;4970908;28;20031;-76
2023/03/13 07:57:19;;;;;;;3.13;0.80;;;12.80;99.90;;;;;;4967753;28;20184;-75
2023/03/13 07:59:45;;;;;;;4.85;1.27;;;12.90;99.90;;;;;;4968045;28;20898;-74
2023/03/13 08:02:12;;;;;;;2.97;0.90;;;12.90;99.90;;;;;;4965501;28;20042;-76
2023/03/13 08:04:39;;;;;;;2.95;0.63;;;13.00;99.90;;;;;;4969421;28;20046;-75
2023/03/13 08:07:08;;;;;;;4.70;0.73;;;13.00;99.90;;;;;;4960160;28;20318;-75
2023/03/13 08:09:33;;;;;;;0.98;0.43;;;13.10;99.90;;;;;;4966716;28;20027;-76
2023/03/13 08:11:59;;;;;;;0.77;0.40;;;13.10;99.90;;;;;;4963790;28;20049;-76
2023/03/13 08:14:25;;;;;;;2.25;0.55;;;13.10;99.90;;;;;;4968479;28;20458;-75
2023/03/13 08:16:50;;;;;;;2.53;0.40;;;13.20;99.90;;;;;;4965793;28;20034;-75
2023/03/13 08:19:16;;;;;;;2.38;0.40;;;13.20;99.90;;;;;;4966823;28;20037;-76
2023/03/13 08:21:42;;;;;;;2.78;0.47;;;13.20;99.90;;;;;;4964916;28;20086;-74
2023/03/13 08:24:10;;;;;;;1.48;0.80;;;13.20;99.90;;;;;;4964297;28;20036;-76
2023/03/13 08:26:37;;;;;;;1.15;0.57;;;13.20;99.90;;;;;;4968996;28;20046;-76
2023/03/13 08:29:09;;;;;;;1.38;0.68;;;13.20;99.90;;;;;;4968509;28;20256;-75
2023/03/13 08:31:41;;;;;;;1.10;0.50;;;13.20;99.90;;;;;;4967123;28;20109;-78
2023/03/13 08:34:06;;;;;;;2.35;0.43;;;13.30;99.90;;;;;;4965788;28;20428;-77
2023/03/13 08:36:34;;;;;;;0.70;0.43;;;13.30;99.90;;;;;;4968708;28;20022;-77
2023/03/13 08:39:10;;;;;;;2.53;0.40;;;13.30;99.90;;;;;;4966996;28;20034;-76
2023/03/13 08:41:36;;;;;;;1.50;0.50;;;13.40;99.90;;;;;;4968965;28;20027;-77
2023/03/13 08:44:05;;;;;;;3.15;0.50;;;13.40;99.90;;;;;;4971517;28;20030;-78
2023/03/13 08:46:34;;;;;;;1.08;0.40;;;13.50;99.90;;;;;;4968736;28;20085;-77
2023/03/13 08:48:59;;;;;;;0.63;0.35;;;13.50;99.90;;;;;;4963216;28;20035;-77
2023/03/13 08:51:27;;;;;;;2.72;0.55;;;13.60;99.90;;;;;;4983009;28;20038;-77
2023/03/13 08:53:57;;;;;;;1.58;0.50;;;13.60;99.90;;;;;;4966777;28;20045;-77
2023/03/13 08:56:29;;;;;;;1.50;0.40;;;13.70;99.90;;;;;;4967763;28;20090;-75
2023/03/13 08:58:57;;;;;;;0.90;0.40;;;13.70;99.90;;;;;;4966442;28;20023;-77
2023/03/13 09:01:25;;;;;;;0.45;0.35;;;13.80;99.90;;;;;;4967184;28;20026;-75
2023/03/13 09:03:51;;;;;;;0.98;0.47;;;13.80;99.90;;;;;;4968286;28;20031;-75
2023/03/13 09:06:17;;;;;;;1.40;0.43;;;13.90;99.90;;;;;;4964651;28;20023;-75
2023/03/13 09:08:43;;;;;;;1.55;0.60;;;13.90;99.90;;;;;;4969072;28;20034;-77
2023/03/13 09:11:11;;;;;;;2.28;0.50;;;13.90;99.90;;;;;;4966031;28;20038;-75
2023/03/13 09:13:40;;;;;;;1.00;0.50;;;14.00;99.90;;;;;;4959232;28;20038;-75
2023/03/13 09:16:08;;;;;;;1.27;0.75;;;14.00;99.90;;;;;;4966185;28;20042;-77
2023/03/13 09:18:35;;;;;;;1.55;0.60;;;14.10;99.90;;;;;;4961461;28;20384;-76
2023/03/13 09:21:01;;;;;;;0.82;0.50;;;14.10;99.90;;;;;;4964537;28;20047;-78
2023/03/13 09:23:26;;;;;;;3.75;0.40;;;14.20;99.90;;;;;;4970462;28;20039;-79
2023/03/13 09:25:53;;;;;;;1.02;0.50;;;14.20;99.90;;;;;;4974523;28;20026;-79
2023/03/13 09:28:20;;;;;;;1.25;0.57;;;14.30;99.90;;;;;;4974858;28;20145;-80
2023/03/13 09:30:48;;;;;;;1.58;0.40;;;14.40;99.90;;;;;;4969114;28;20035;-79
2023/03/13 09:33:13;;;;;;;2.40;0.82;;;14.50;99.90;;;;;;4973884;28;20019;-80
2023/03/13 09:35:39;;;;;;;1.10;0.50;;;14.70;99.90;;;;;;4976822;28;20058;-80
2023/03/13 09:38:06;;;;;;;2.28;0.60;;;14.80;99.90;;;;;;4977833;28;20081;-79
2023/03/13 09:40:38;;;;;;;0.95;0.60;;;15.00;99.90;;;;;;4974608;28;20070;-79
2023/03/13 09:43:04;;;;;;;1.25;0.65;;;15.20;99.90;;;;;;4973883;28;20034;-80
2023/03/13 09:45:37;;;;;;;1.42;0.60;;;15.40;99.90;;;;;;4976826;28;20066;-78
2023/03/13 09:48:30;;;;;;;2.25;0.75;;;15.50;99.90;;;;;;4975108;28;20030;-82
2023/03/13 09:51:14;;;;;;;1.58;0.70;;;15.60;99.90;;;;;;4974440;28;20042;-78
2023/03/13 09:53:57;;;;;;;1.42;0.70;;;15.70;99.90;;;;;;4981605;28;20151;-80
2023/03/13 09:56:44;;;;;;;1.58;0.80;;;15.80;99.90;;;;;;4972716;28;20038;-78
2023/03/13 09:59:35;;;;;;;1.80;0.60;;;15.80;99.90;;;;;;4976488;28;20090;-79
2023/03/13 10:02:08;;;;;;;3.60;1.00;;;15.90;99.90;;;;;;4973236;28;20023;-78
2023/03/13 10:04:48;;;;;;;5.43;0.80;;;15.90;99.90;;;;;;4974264;28;20085;-80
2023/03/13 10:07:14;;;;;;;1.88;0.80;;;15.90;99.90;;;;;;4970617;28;20046;-79
2023/03/13 10:09:39;;;;;;;2.58;0.75;;;16.00;99.90;;;;;;4976854;28;20039;-79
2023/03/13 10:12:21;;;;;;;4.90;0.98;;;16.10;99.90;;;;;;4973525;28;20027;-81
2023/03/13 10:15:02;;;;;;;2.25;1.40;;;16.10;99.90;;;;;;4974635;28;20023;-80
2023/03/13 10:17:37;;;;;;;2.95;0.80;;;16.20;99.90;;;;;;4976269;28;20049;-79
2023/03/13 10:20:26;;;;;;;1.20;0.90;;;16.30;99.90;;;;;;4992903;28;20029;-79
2023/03/13 10:23:09;;;;;;;4.93;1.13;;;16.40;99.90;;;;;;4981784;28;20181;-79
2023/03/13 10:25:37;;;;;;;3.92;1.00;;;16.50;99.90;;;;;;4982324;28;20026;-78
2023/03/13 10:28:04;;;;;;;7.68;0.93;;;16.60;99.90;;;;;;4972170;28;20418;-83
2023/03/13 10:30:34;;;;;;;2.33;0.95;;;16.60;99.90;;;;;;4972660;28;20046;-80
2023/03/13 10:33:07;;;;;;;1.40;0.90;;;16.60;99.90;;;;;;4974977;28;20015;-79
2023/03/13 10:35:36;;;;;;;4.63;1.10;;;16.60;99.90;;;;;;4977165;28;20030;-80
2023/03/13 10:38:19;;;;;;;1.92;0.90;;;16.70;99.90;;;;;;4971811;28;20019;-79
2023/03/13 10:41:08;;;;;;;3.97;1.13;;;16.80;99.90;;;;;;4978880;28;20027;-79
2023/03/13 10:43:33;;;;;;;1.05;0.73;;;16.90;99.90;;;;;;4978614;28;20086;-79
2023/03/13 10:46:00;;;;;;;4.13;1.15;;;17.00;99.90;;;;;;4983527;28;20452;-80
2023/03/13 10:48:34;;;;;;;1.92;1.02;;;17.00;99.90;;;;;;4978707;28;20030;-80
2023/03/13 10:51:00;;;;;;;1.98;0.70;;;17.10;99.90;;;;;;4978438;28;20051;-79
2023/03/13 10:53:28;;;;;;;2.38;0.90;;;17.20;99.90;;;;;;4969937;28;20039;-80
2023/03/13 10:55:59;;;;;;;3.72;0.80;;;17.40;99.90;;;;;;4979096;28;20030;-79
2023/03/13 10:58:40;;;;;;;4.28;0.80;;;17.40;99.90;;;;;;4971743;28;20027;-82
2023/03/13 11:01:28;;;;;;;1.95;0.80;;;17.60;99.90;;;;;;4972507;28;20034;-80
2023/03/13 11:03:56;;;;;;;5.43;1.52;;;17.60;99.90;;;;;;4979414;28;20113;-81
2023/03/13 11:06:30;;;;;;;5.18;1.63;;;17.70;99.90;;;;;;4982184;28;20022;-81
2023/03/13 11:09:16;;;;;;;3.25;1.17;;;17.80;99.90;;;;;;4977455;28;20035;-80
2023/03/13 11:11:49;;;;;;;1.95;0.90;;;17.90;99.90;;;;;;4978611;28;20027;-78
2023/03/13 11:14:23;;;;;;;2.30;0.90;;;18.00;99.90;;;;;;4969040;28;20488;-79
2023/03/13 11:17:30;;;;;;;3.95;1.00;;;18.10;99.90;;;;;;4977999;28;20109;-79
2023/03/13 11:20:06;;;;;;;4.15;0.85;;;18.10;99.90;;;;;;4974249;28;20039;-83
2023/03/13 11:22:47;;;;;;;4.07;0.80;;;18.20;99.70;;;;;;4983914;28;20035;-82
2023/03/13 11:25:21;;;;;;;3.58;1.15;;;18.10;99.50;;;;;;4973919;28;20456;-80
2023/03/13 11:28:02;;;;;;;3.78;1.45;;;18.10;99.60;;;;;;4973482;28;20380;-80
2023/03/13 11:30:43;;;;;;;1.40;0.70;;;18.20;99.70;;;;;;4973644;28;20065;-79
2023/03/13 11:33:27;;;;;;;1.88;0.80;;;18.20;99.30;;;;;;4969559;28;20479;-77
2023/03/13 11:36:04;;;;;;;3.70;0.88;;;18.30;99.20;;;;;;4968245;28;20027;-82
2023/03/13 11:38:43;;;;;;;5.82;1.30;;;18.30;99.20;;;;;;4971431;28;20027;-81
2023/03/13 11:41:12;;;;;;;2.05;1.15;;;18.40;98.90;;;;;;4975612;28;20054;-81
2023/03/13 11:43:49;;;;;;;2.03;0.85;;;18.40;99.00;;;;;;4975213;28;20150;-83
2023/03/13 11:46:29;;;;;;;1.30;0.75;;;18.40;98.60;;;;;;4977143;28;20030;-80
2023/03/13 11:49:04;;;;;;;2.38;0.82;;;18.40;98.50;;;;;;4971317;28;20015;-81
2023/03/13 11:52:12;;;;;;;1.83;1.08;;;18.40;98.60;;;;;;4981216;28;20030;-80
2023/03/13 11:54:56;;;;;;;6.15;1.25;;;18.40;98.40;;;;;;4976732;28;20030;-79
2023/03/13 11:57:55;;;;;;;3.47;1.08;;;18.50;98.50;;;;;;4972803;28;20126;-78
2023/03/13 12:00:30;;;;;;;2.60;0.90;;;18.50;98.20;;;;;;4970902;28;20039;-83
2023/03/13 12:03:15;;;;;;;2.72;1.25;;;18.60;98.00;;;;;;4971933;28;20243;-81
2023/03/13 12:05:50;;;;;;;3.72;1.50;;;18.60;98.00;;;;;;4975496;28;20039;-81
2023/03/13 12:08:26;;;;;;;2.17;1.05;;;18.60;98.00;;;;;;4967989;28;20048;-78
2023/03/13 12:11:09;;;;;;;3.83;1.73;;;18.60;97.80;;;;;;4970881;28;20119;-80
2023/03/13 12:13:41;;;;;;;3.20;1.77;;;18.70;97.20;;;;;;4971142;28;20038;-79
2023/03/13 12:16:19;;;;;;;3.60;1.30;;;18.70;97.20;;;;;;4976538;28;20014;-79
2023/03/13 12:18:48;;;;;;;3.72;1.08;;;18.80;96.80;;;;;;4980217;28;20475;-78
2023/03/13 12:21:41;;;;;;;3.85;1.13;;;18.70;96.70;;;;;;4976023;28;20491;-78
2023/03/13 12:24:38;;;;;;;3.67;1.00;;;18.80;96.60;;;;;;4976978;28;20158;-81
2023/03/13 12:27:32;;;;;;;3.55;1.20;;;18.80;96.30;;;;;;4976098;28;20026;-80
2023/03/13 12:30:38;;;;;;;8.83;1.13;;;19.00;95.70;;;;;;4972961;28;20091;-81
2023/03/13 12:33:29;;;;;;;3.92;0.88;;;19.00;94.80;;;;;;4974317;28;20333;-79
2023/03/13 12:36:06;;;;;;;4.18;0.80;;;19.00;94.30;;;;;;4971711;28;20014;-80
2023/03/13 12:38:57;;;;;;;4.15;1.02;;;19.10;94.00;;;;;;4971974;28;20045;-78
2023/03/13 12:41:40;;;;;;;4.40;1.35;;;19.10;94.00;;;;;;4973162;28;20019;-80
2023/03/13 12:44:10;;;;;;;10.80;1.10;;;19.10;93.70;;;;;;4973426;28;20054;-79
2023/03/13 12:46:41;;;;;;;2.03;1.27;;;19.20;93.30;;;;;;4974374;28;20035;-80
2023/03/13 12:49:40;;;;;;;5.45;0.90;;;19.20;93.10;;;;;;4972077;28;20022;-79
2023/03/13 12:52:13;;;;;;;2.83;1.23;;;19.30;92.00;;;;;;4972499;28;20034;-80
2023/03/13 12:54:58;;;;;;;3.43;0.90;;;19.40;91.80;;;;;;4978704;28;20053;-80
2023/03/13 12:57:44;;;;;;;3.42;1.02;;;19.40;91.40;;;;;;4972963;28;20380;-79
2023/03/13 13:00:19;;;;;;;4.78;1.42;;;19.40;91.50;;;;;;4973255;28;20019;-81
2023/03/13 13:02:45;;;;;;;3.55;0.98;;;19.40;91.60;;;;;;4972783;28;20019;-80